Terminal Aerodrome Forecast
Issued by NWS Charleston, SC

Home | Current Version | Previous Version | Text Only | Print | Product List | Glossary On
Versions: 1 2 3 4 5 6 7 8 9 10 11 12 13 14 15 16 17 18 19 20 21 22 23 24 25 26 27 28
000
FTUS42 KCHS 200520
TAFCHS
TAF
KCHS 200520Z 2006/2106 02004KT P6SM FEW015 SCT025
      TEMPO 2010/2014 SCT015 BKN025
     FM201400 04008KT P6SM SCT025 BKN040
     FM202300 06005KT P6SM FEW015 SCT070 BKN250=

USA.gov is the U.S. government's official web portal to all federal, state and local government web resources and services.